CheckWX is a tool to help pilots better visualize weather data.  It is not intended as a substitute for an official pre-flight weather briefing.

15:32:02 UTC

GMFO METAR
Angads Airport
Oujda, Morocco
Current

32 mins ago

GMFO 261500Z 35010G22KT 270V340 9999 FEW026 26/11 Q1015 NOSIG
Observed
May-26 @ 15:00 UTC
Wind
  • 350° at 10 KTS
  • Gusting to 22 KTS
Visibility
10,000+ meters
Flight Rules
VFR
Cloud Levels
  • Few at 2,600' AGL
Temperature
26°C / 79°F
Dewpoint
11°C / 52°F
Humidity
39%
Altimeter
29.97" Hg
Pressure
1014.92 hPa
Previous

2 hours ago

GMFO 261400Z 06006KT 320V100 9999 FEW026 26/06 Q1016 NOSIG
Observed
May-26 @ 14:00 UTC
Wind
  • 060° at 6 KTS
Visibility
10,000+ meters
Flight Rules
VFR
Cloud Levels
  • Few at 2,600' AGL
Temperature
26°C / 79°F
Dewpoint
C / 43°F
Humidity
28%
Altimeter
30" Hg
Pressure
1015.92 hPa
Previous

3 hours ago

GMFO 261300Z VRB08KT 9999 FEW026 25/07 Q1016 NOSIG
Observed
May-26 @ 13:00 UTC
Wind
  • Variable at 8 KTS
Visibility
10,000+ meters
Flight Rules
VFR
Cloud Levels
  • Few at 2,600' AGL
Temperature
25°C / 77°F
Dewpoint
C / 45°F
Humidity
32%
Altimeter
30" Hg
Pressure
1015.92 hPa